Shipu, China
Current Conditions -  °F | °C
As of 5:00 PM on Monday 20 Oct 2014 (Local Time) from ZSNB Reporting Station
Clear Clear  
Wind Chill: 28°   Ceiling: Unl
Heat Index: 29°   Visibility: 6mi
Dew Point: 18°   Wind: 9mph
Humidity: 54%   Direction: 150°SSE
Pressure: 29.88"   Gusts: NA
Location:  29.2°N, 121.95°E
Report Text: ZSNB 200900Z 15004MPS CAVOK 28/18 Q1012 NOSIG
Loading
Personal Weather Stations






























Interactive Weather Map
Tropical Storm Tracking
New forecast layout! Learn more

10-Day Weather Forecast

Advertisements
Track Severe Weather on mobile